Time;durP1;ratioP1;P1;durP2;ratioP2;P2;SDS_P1;SDS_P2;PMS_P1;PMS_P2;Temp;Humidity;BMP_temperature;BMP_pressure;BME280_temperature;BME280_humidity;BME280_pressure;Samples;Min_cycle;Max_cycle;Signal;HPM_P1;HPM_P2
2023/01/22 00:00:21;;;;;;;17.20;9.75;;;-1.90;99.90;;;;;;5057904;28;20277;-75
2023/01/22 00:02:48;;;;;;;16.50;10.40;;;-2.00;99.90;;;;;;5058253;28;20201;-75
2023/01/22 00:05:15;;;;;;;15.80;9.77;;;-2.00;99.90;;;;;;5065546;28;20545;-75
2023/01/22 00:07:44;;;;;;;16.13;10.13;;;-2.00;99.90;;;;;;5053325;28;20258;-75
2023/01/22 00:10:12;;;;;;;16.83;11.10;;;-2.00;99.90;;;;;;5064910;28;20233;-75
2023/01/22 00:12:40;;;;;;;20.70;9.63;;;-2.10;99.90;;;;;;5065316;28;20260;-75
2023/01/22 00:15:08;;;;;;;13.82;9.93;;;-2.10;99.90;;;;;;5066668;28;20230;-75
2023/01/22 00:17:36;;;;;;;13.82;9.40;;;-2.10;99.90;;;;;;5061271;28;20230;-75
2023/01/22 00:20:04;;;;;;;16.10;10.70;;;-2.20;99.90;;;;;;5059971;28;20435;-75
2023/01/22 00:22:31;;;;;;;13.55;10.02;;;-2.20;99.90;;;;;;5058920;28;20241;-75
2023/01/22 00:25:00;;;;;;;16.20;10.60;;;-2.20;99.90;;;;;;5062538;28;20245;-75
2023/01/22 00:27:27;;;;;;;20.58;10.40;;;-2.30;99.90;;;;;;5060162;28;20291;-75
2023/01/22 00:29:55;;;;;;;16.73;9.68;;;-2.30;99.90;;;;;;5052282;28;20341;-75
2023/01/22 00:32:22;;;;;;;11.57;8.63;;;-2.40;99.90;;;;;;5053885;28;20239;-75
2023/01/22 00:34:51;;;;;;;13.77;9.40;;;-2.50;99.90;;;;;;5060744;28;20719;-75
2023/01/22 00:37:19;;;;;;;16.83;10.30;;;-2.50;99.90;;;;;;5066577;28;20288;-75
2023/01/22 00:39:46;;;;;;;18.45;12.02;;;-2.50;99.90;;;;;;5054150;28;20547;-74
2023/01/22 00:42:13;;;;;;;16.50;9.48;;;-2.60;99.90;;;;;;5070070;28;20234;-75
2023/01/22 00:44:40;;;;;;;13.68;9.60;;;-2.60;99.90;;;;;;5067550;28;20241;-75
2023/01/22 00:47:08;;;;;;;14.02;8.73;;;-2.70;99.90;;;;;;5062819;28;20261;-75
2023/01/22 00:49:35;;;;;;;15.00;9.70;;;-2.70;99.90;;;;;;5051984;28;20267;-74
2023/01/22 00:52:02;;;;;;;16.63;9.88;;;-2.80;99.90;;;;;;5062578;28;20233;-75
2023/01/22 00:54:31;;;;;;;18.02;11.05;;;-2.80;99.90;;;;;;5063624;28;20252;-75
2023/01/22 00:56:58;;;;;;;14.65;10.38;;;-2.90;99.90;;;;;;5059163;28;20487;-75
2023/01/22 00:59:36;;;;;;;16.25;9.63;;;-2.90;99.90;;;;;;5064815;28;20233;-75
2023/01/22 01:02:05;;;;;;;19.95;9.05;;;-2.90;99.90;;;;;;5056513;28;20275;-75
2023/01/22 01:04:37;;;;;;;15.85;8.05;;;-2.80;99.90;;;;;;5063735;28;20485;-75
2023/01/22 01:07:04;;;;;;;14.60;8.80;;;-2.90;99.90;;;;;;5060761;28;20309;-75
2023/01/22 01:09:31;;;;;;;17.05;8.60;;;-2.80;99.90;;;;;;5059448;28;20234;-75
2023/01/22 01:12:00;;;;;;;14.02;10.15;;;-2.80;99.90;;;;;;5063777;28;20245;-75
2023/01/22 01:14:28;;;;;;;18.17;10.95;;;-2.80;99.90;;;;;;5058744;28;20233;-75
2023/01/22 01:16:55;;;;;;;14.05;8.70;;;-2.80;99.90;;;;;;5060293;28;20727;-75
2023/01/22 01:19:22;;;;;;;14.38;9.70;;;-2.70;99.90;;;;;;5049737;28;20230;-75
2023/01/22 01:21:50;;;;;;;14.50;9.13;;;-2.70;99.90;;;;;;5060326;28;20493;-75
2023/01/22 01:24:20;;;;;;;15.88;10.65;;;-2.60;99.90;;;;;;5062281;28;20234;-75
2023/01/22 01:26:47;;;;;;;13.52;10.48;;;-2.50;99.90;;;;;;5062856;28;20272;-75
2023/01/22 01:29:22;;;;;;;17.10;10.15;;;-2.50;99.90;;;;;;5056573;28;20650;-75
2023/01/22 01:31:52;;;;;;;16.33;10.85;;;-2.40;99.90;;;;;;5063256;28;20660;-75
2023/01/22 01:34:19;;;;;;;18.95;9.38;;;-2.40;99.90;;;;;;5060358;28;20391;-75
2023/01/22 01:36:46;;;;;;;13.00;8.85;;;-2.40;99.90;;;;;;5055030;28;20230;-75
2023/01/22 01:39:14;;;;;;;18.88;10.38;;;-2.40;99.90;;;;;;5078051;28;20233;-75
2023/01/22 01:41:43;;;;;;;14.00;10.15;;;-2.40;99.90;;;;;;5068376;28;20237;-75
2023/01/22 01:44:16;;;;;;;20.88;12.02;;;-2.30;99.90;;;;;;5066579;28;20217;-75
2023/01/22 01:46:50;;;;;;;21.65;9.90;;;-2.20;99.90;;;;;;5061581;28;20233;-75
2023/01/22 01:49:24;;;;;;;21.35;12.80;;;-2.20;99.90;;;;;;5057299;28;20389;-75
2023/01/22 01:51:53;;;;;;;14.63;9.80;;;-2.20;99.90;;;;;;5059950;28;20302;-75
2023/01/22 01:54:21;;;;;;;16.08;10.98;;;-2.10;99.90;;;;;;5072081;28;20248;-75
2023/01/22 01:56:51;;;;;;;17.20;10.55;;;-2.00;99.90;;;;;;5054336;28;20229;-75
2023/01/22 01:59:20;;;;;;;20.55;11.13;;;-2.10;99.90;;;;;;5067450;28;20209;-75
2023/01/22 02:01:52;;;;;;;14.88;9.68;;;-2.00;99.90;;;;;;5068520;28;20706;-75
2023/01/22 02:04:19;;;;;;;16.77;11.02;;;-2.00;99.90;;;;;;5063376;28;20206;-75
2023/01/22 02:06:46;;;;;;;14.43;9.60;;;-1.90;99.90;;;;;;5064197;28;20562;-75
2023/01/22 02:09:14;;;;;;;13.95;9.75;;;-1.90;99.90;;;;;;5079031;28;20498;-75
2023/01/22 02:11:43;;;;;;;19.30;12.18;;;-1.90;99.90;;;;;;5079659;28;20237;-75
2023/01/22 02:14:13;;;;;;;17.05;9.82;;;-1.90;99.90;;;;;;5067747;28;20888;-75
2023/01/22 02:16:40;;;;;;;11.77;10.05;;;-1.90;99.90;;;;;;5061698;28;20230;-75
2023/01/22 02:19:07;;;;;;;17.23;12.02;;;-2.00;99.90;;;;;;5070495;28;20233;-75
2023/01/22 02:21:37;;;;;;;16.83;11.10;;;-1.90;99.90;;;;;;5070122;28;20649;-75
2023/01/22 02:24:06;;;;;;;18.55;11.80;;;-2.00;99.90;;;;;;5063254;28;20712;-75
2023/01/22 02:26:33;;;;;;;24.25;13.40;;;-1.90;99.90;;;;;;5054507;28;20214;-75
2023/01/22 02:29:01;;;;;;;17.23;10.40;;;-1.90;99.90;;;;;;5063048;28;20527;-75
2023/01/22 02:31:28;;;;;;;17.77;10.25;;;-1.90;99.90;;;;;;5076066;28;20220;-75
2023/01/22 02:33:58;;;;;;;18.08;10.57;;;-1.90;99.90;;;;;;5062882;28;20226;-75
2023/01/22 02:36:25;;;;;;;18.30;12.00;;;-1.90;99.90;;;;;;5048097;28;20209;-75
2023/01/22 02:38:53;;;;;;;18.63;11.02;;;-1.90;99.90;;;;;;5068526;28;20666;-74
2023/01/22 02:41:20;;;;;;;20.98;11.55;;;-1.90;99.90;;;;;;5070058;28;21512;-75
2023/01/22 02:43:47;;;;;;;16.20;10.07;;;-2.00;99.90;;;;;;5063563;28;20311;-75
2023/01/22 02:46:14;;;;;;;16.60;9.77;;;-2.00;99.90;;;;;;5081719;28;20259;-75
2023/01/22 02:48:41;;;;;;;16.90;10.38;;;-2.00;99.90;;;;;;5055930;28;20304;-75
2023/01/22 02:51:08;;;;;;;18.92;12.02;;;-2.00;99.90;;;;;;5053529;28;20461;-75
2023/01/22 02:53:35;;;;;;;14.05;10.30;;;-2.00;99.90;;;;;;5056730;28;20234;-75
2023/01/22 02:56:12;;;;;;;17.70;10.93;;;-2.00;99.90;;;;;;5058772;28;20592;-75
2023/01/22 02:58:39;;;;;;;18.45;11.52;;;-2.10;99.90;;;;;;5057535;28;20645;-74
2023/01/22 03:01:17;;;;;;;16.30;9.75;;;-2.10;99.90;;;;;;5062139;28;20283;-75
2023/01/22 03:03:45;;;;;;;16.67;11.02;;;-2.10;99.90;;;;;;5050865;28;20565;-75
2023/01/22 03:06:14;;;;;;;18.08;10.68;;;-2.10;99.90;;;;;;5055196;28;20283;-75
2023/01/22 03:08:42;;;;;;;18.05;9.75;;;-2.00;99.90;;;;;;5057331;28;20326;-75
2023/01/22 03:11:10;;;;;;;18.60;10.93;;;-2.00;99.90;;;;;;5054542;28;20237;-75
2023/01/22 03:21:50;;;;;;;15.68;11.00;;;-2.00;99.90;;;;;;5061989;28;20223;-75
2023/01/22 03:24:17;;;;;;;15.32;9.45;;;-2.10;99.90;;;;;;5055039;28;20235;-75
2023/01/22 03:26:45;;;;;;;16.10;10.82;;;-2.10;99.90;;;;;;5054666;28;20234;-75
2023/01/22 03:29:12;;;;;;;13.00;9.43;;;-2.10;99.90;;;;;;5062548;28;20778;-75
2023/01/22 03:31:39;;;;;;;16.10;10.45;;;-2.00;99.90;;;;;;5062798;28;20198;-75
2023/01/22 03:34:06;;;;;;;16.83;10.32;;;-2.00;99.90;;;;;;5061311;28;20511;-75
2023/01/22 03:36:33;;;;;;;17.15;10.20;;;-2.00;99.90;;;;;;5060309;28;20897;-75
2023/01/22 03:39:11;;;;;;;20.77;11.48;;;-1.90;99.90;;;;;;5061020;28;20363;-74
2023/01/22 03:41:39;;;;;;;12.60;10.52;;;-2.00;99.90;;;;;;5065138;28;20453;-75
2023/01/22 03:44:10;;;;;;;17.23;9.93;;;-1.90;99.90;;;;;;5056325;28;20315;-75
2023/01/22 03:46:38;;;;;;;18.77;13.38;;;-1.90;99.90;;;;;;5063929;28;20206;-75
2023/01/22 03:49:05;;;;;;;18.88;11.98;;;-1.90;99.90;;;;;;5062820;28;20225;-75
2023/01/22 03:51:33;;;;;;;17.52;12.50;;;-1.90;99.90;;;;;;5060945;28;20255;-75
2023/01/22 03:54:00;;;;;;;18.73;10.27;;;-1.90;99.90;;;;;;5063544;28;20261;-75
2023/01/22 03:56:27;;;;;;;16.95;10.60;;;-1.90;99.90;;;;;;5058112;28;20600;-75
2023/01/22 03:58:59;;;;;;;22.17;12.63;;;-1.90;99.90;;;;;;5063907;28;20256;-75
2023/01/22 04:01:30;;;;;;;15.55;9.63;;;-1.90;99.90;;;;;;5052629;28;20225;-75
2023/01/22 04:03:57;;;;;;;16.50;8.40;;;-1.90;99.90;;;;;;5053323;28;20605;-74
2023/01/22 04:06:24;;;;;;;17.60;10.70;;;-1.90;99.90;;;;;;5052209;28;20209;-75
2023/01/22 04:08:53;;;;;;;14.77;8.63;;;-1.90;99.90;;;;;;5046943;28;20315;-75
2023/01/22 04:11:21;;;;;;;17.60;11.43;;;-1.90;99.90;;;;;;5063532;28;20205;-75
2023/01/22 04:13:48;;;;;;;18.75;12.00;;;-1.90;99.90;;;;;;5064858;28;20233;-75
2023/01/22 04:16:16;;;;;;;18.70;12.00;;;-1.80;99.90;;;;;;5058273;28;20249;-75
2023/01/22 04:18:44;;;;;;;20.65;12.63;;;-1.90;99.90;;;;;;5057427;28;20299;-75
2023/01/22 04:21:11;;;;;;;22.45;12.35;;;-1.90;99.90;;;;;;5064437;28;20287;-75
2023/01/22 04:23:47;;;;;;;17.13;9.65;;;-1.90;99.90;;;;;;5056944;28;20202;-74
2023/01/22 04:26:14;;;;;;;18.30;11.13;;;-1.80;99.90;;;;;;5056912;28;20322;-75
2023/01/22 04:28:41;;;;;;;18.65;11.60;;;-1.80;99.90;;;;;;5060823;28;20665;-75
2023/01/22 04:31:08;;;;;;;18.83;10.65;;;-1.80;99.90;;;;;;5063331;28;20233;-75
2023/01/22 04:33:36;;;;;;;17.55;11.00;;;-1.90;99.90;;;;;;5066301;28;20245;-75
2023/01/22 04:36:05;;;;;;;19.63;13.23;;;-1.80;99.90;;;;;;5058250;28;20290;-75
2023/01/22 04:38:31;;;;;;;18.15;10.65;;;-1.90;99.90;;;;;;5060184;28;20653;-75
2023/01/22 04:40:58;;;;;;;14.93;9.32;;;-1.90;99.90;;;;;;5058199;28;20253;-75
2023/01/22 04:43:25;;;;;;;20.58;11.20;;;-1.90;99.90;;;;;;5064270;28;20241;-75
2023/01/22 04:45:52;;;;;;;18.42;11.55;;;-1.90;99.90;;;;;;5057805;28;20715;-75
2023/01/22 04:48:19;;;;;;;17.90;10.48;;;-1.90;99.90;;;;;;5057571;28;20261;-75
2023/01/22 04:50:46;;;;;;;19.98;11.95;;;-1.90;99.90;;;;;;5064890;28;20616;-75
2023/01/22 04:53:17;;;;;;;21.63;11.38;;;-1.90;99.90;;;;;;5061834;28;20291;-74
2023/01/22 04:55:44;;;;;;;15.48;9.35;;;-1.90;99.90;;;;;;5063443;28;20625;-74
2023/01/22 04:58:13;;;;;;;20.27;11.25;;;-1.90;99.90;;;;;;5064575;28;20662;-75
2023/01/22 05:00:40;;;;;;;20.58;12.00;;;-1.90;99.90;;;;;;5053653;28;20220;-75
2023/01/22 05:03:15;;;;;;;15.32;10.65;;;-1.90;99.90;;;;;;5062248;28;20206;-75
2023/01/22 05:05:41;;;;;;;16.00;9.60;;;-1.90;99.90;;;;;;5053571;28;20212;-75
2023/01/22 05:08:09;;;;;;;23.60;12.27;;;-1.90;99.90;;;;;;5061080;28;20507;-75
2023/01/22 05:10:37;;;;;;;17.98;9.60;;;-1.90;99.90;;;;;;5059765;28;20197;-75
2023/01/22 05:13:06;;;;;;;14.80;9.60;;;-1.90;99.90;;;;;;5063650;28;20287;-75
2023/01/22 05:15:42;;;;;;;19.35;12.32;;;-1.90;99.90;;;;;;5053851;28;20731;-75
2023/01/22 05:18:12;;;;;;;19.15;11.50;;;-1.90;99.90;;;;;;5055233;28;20328;-75
2023/01/22 05:20:39;;;;;;;15.63;11.27;;;-1.90;99.90;;;;;;5052805;28;20238;-75
2023/01/22 05:23:05;;;;;;;19.15;10.05;;;-1.90;99.90;;;;;;5057429;28;20307;-75
2023/01/22 05:25:32;;;;;;;18.55;11.48;;;-1.90;99.90;;;;;;5062000;28;20270;-75
2023/01/22 05:28:01;;;;;;;20.90;12.90;;;-1.80;99.90;;;;;;5060754;28;20652;-75
2023/01/22 05:30:30;;;;;;;16.30;10.43;;;-1.90;99.90;;;;;;5062291;28;20315;-75
2023/01/22 05:32:57;;;;;;;15.98;10.13;;;-1.80;99.90;;;;;;5063234;28;20220;-75
2023/01/22 05:35:27;;;;;;;18.85;11.80;;;-1.80;99.90;;;;;;5055169;28;20234;-75
2023/01/22 05:37:55;;;;;;;21.17;13.27;;;-1.80;99.90;;;;;;5055816;28;20242;-75
2023/01/22 05:40:24;;;;;;;23.02;12.02;;;-1.80;99.90;;;;;;5058192;28;20238;-75
2023/01/22 05:42:51;;;;;;;19.00;12.63;;;-1.70;99.90;;;;;;5060000;28;20224;-75
2023/01/22 05:45:20;;;;;;;19.67;12.02;;;-1.70;99.90;;;;;;5051182;28;20238;-75
2023/01/22 05:47:51;;;;;;;16.75;11.13;;;-1.70;99.90;;;;;;5056877;28;20547;-75
2023/01/22 05:50:19;;;;;;;19.38;12.45;;;-1.70;99.90;;;;;;5058549;28;20214;-75
2023/01/22 05:52:51;;;;;;;20.83;12.00;;;-1.70;99.90;;;;;;5049859;28;20256;-75
2023/01/22 05:55:18;;;;;;;21.20;12.82;;;-1.70;99.90;;;;;;5063306;28;20228;-75
2023/01/22 05:57:46;;;;;;;17.63;11.40;;;-1.80;99.90;;;;;;5062735;28;20538;-75
2023/01/22 06:00:15;;;;;;;20.27;11.40;;;-1.80;99.90;;;;;;5058732;28;20225;-75
2023/01/22 06:02:46;;;;;;;20.30;12.35;;;-1.70;99.90;;;;;;5055509;28;20237;-75
2023/01/22 06:05:13;;;;;;;21.55;12.02;;;-1.80;99.90;;;;;;5061494;28;20568;-75
2023/01/22 06:07:40;;;;;;;18.92;13.20;;;-1.80;99.90;;;;;;5056649;28;20214;-75
2023/01/22 06:10:08;;;;;;;24.35;13.85;;;-1.80;99.90;;;;;;5057841;28;20261;-75
2023/01/22 06:12:37;;;;;;;19.55;10.85;;;-1.80;99.90;;;;;;5065195;28;20234;-75
2023/01/22 06:15:05;;;;;;;18.95;12.32;;;-1.90;99.90;;;;;;5060530;28;20217;-75
2023/01/22 06:17:32;;;;;;;20.02;11.77;;;-1.90;99.90;;;;;;5064362;28;20311;-75
2023/01/22 06:20:04;;;;;;;23.90;11.43;;;-1.90;99.90;;;;;;5058757;28;20234;-75
2023/01/22 06:22:39;;;;;;;17.50;12.10;;;-1.90;99.90;;;;;;5063810;28;20245;-75
2023/01/22 06:25:14;;;;;;;16.87;10.17;;;-1.90;99.90;;;;;;5055710;28;20265;-75
2023/01/22 06:27:43;;;;;;;29.55;15.65;;;-1.90;99.90;;;;;;5051924;28;20467;-74
2023/01/22 06:30:11;;;;;;;21.63;10.70;;;-1.90;99.90;;;;;;5049218;28;20253;-75
2023/01/22 06:32:41;;;;;;;15.82;10.70;;;-1.90;99.90;;;;;;5053357;28;20290;-75
2023/01/22 06:35:10;;;;;;;18.92;11.57;;;-1.90;99.90;;;;;;5056717;28;20298;-75
2023/01/22 06:37:36;;;;;;;16.60;11.57;;;-1.90;99.90;;;;;;5061074;28;20233;-75
2023/01/22 06:40:04;;;;;;;20.05;13.55;;;-1.90;99.90;;;;;;5048085;28;20259;-75
2023/01/22 06:42:31;;;;;;;20.88;11.75;;;-2.00;99.90;;;;;;5047755;28;20666;-75
2023/01/22 06:45:00;;;;;;;22.17;12.80;;;-2.00;99.90;;;;;;5056966;28;20206;-75
2023/01/22 06:47:27;;;;;;;32.95;19.63;;;-2.00;99.90;;;;;;5054000;28;20209;-75
2023/01/22 06:49:55;;;;;;;40.78;23.40;;;-2.00;99.90;;;;;;5055639;28;20323;-75
2023/01/22 06:52:24;;;;;;;33.20;21.02;;;-2.00;99.90;;;;;;5062794;28;20307;-75
2023/01/22 06:54:51;;;;;;;38.10;21.85;;;-1.90;99.90;;;;;;5057718;28;20202;-75
2023/01/22 06:57:18;;;;;;;34.05;23.00;;;-1.90;99.90;;;;;;5058869;28;20667;-75
2023/01/22 06:59:44;;;;;;;51.67;30.92;;;-1.90;99.90;;;;;;5060007;28;20295;-75
2023/01/22 07:02:16;;;;;;;23.48;16.00;;;-1.90;99.90;;;;;;5059019;28;20331;-75
2023/01/22 07:04:43;;;;;;;43.97;26.20;;;-1.90;99.90;;;;;;5053724;28;20202;-75
2023/01/22 07:07:10;;;;;;;31.90;17.90;;;-1.90;99.90;;;;;;5051014;28;20225;-75
2023/01/22 07:09:41;;;;;;;31.17;15.25;;;-1.90;99.90;;;;;;5062675;28;20306;-75
2023/01/22 07:12:08;;;;;;;22.55;13.05;;;-1.90;99.90;;;;;;5056972;28;20289;-75
2023/01/22 07:14:35;;;;;;;25.70;15.43;;;-1.90;99.90;;;;;;5058087;28;20237;-75
2023/01/22 07:17:02;;;;;;;17.77;11.52;;;-1.80;99.90;;;;;;5054558;28;20226;-75
2023/01/22 07:19:28;;;;;;;17.50;11.60;;;-1.80;99.90;;;;;;5057585;28;20551;-75
2023/01/22 07:21:55;;;;;;;22.58;13.32;;;-1.80;99.90;;;;;;5059256;28;20238;-75
2023/01/22 07:24:22;;;;;;;21.58;14.73;;;-1.80;99.90;;;;;;5056729;28;20245;-75
2023/01/22 07:26:51;;;;;;;18.42;11.85;;;-1.90;99.90;;;;;;5059957;28;20301;-75
2023/01/22 07:29:17;;;;;;;22.15;13.38;;;-1.80;99.90;;;;;;5046747;28;20407;-75
2023/01/22 07:31:48;;;;;;;21.27;12.40;;;-1.90;99.90;;;;;;5049523;28;20234;-75
2023/01/22 07:34:15;;;;;;;23.98;15.18;;;-1.80;99.90;;;;;;5053903;28;20747;-75
2023/01/22 07:36:42;;;;;;;24.73;14.25;;;-1.70;99.90;;;;;;5051688;28;20234;-75
2023/01/22 07:39:16;;;;;;;18.50;13.20;;;-1.60;99.90;;;;;;5057011;28;20530;-75
2023/01/22 07:41:43;;;;;;;22.88;13.15;;;-1.60;99.90;;;;;;5049219;28;20212;-75
2023/01/22 07:44:15;;;;;;;18.13;11.38;;;-1.60;99.90;;;;;;5052934;28;20292;-75
2023/01/22 07:46:42;;;;;;;19.08;11.63;;;-1.50;99.90;;;;;;5059188;28;20288;-75
2023/01/22 07:49:11;;;;;;;20.27;14.70;;;-1.40;99.90;;;;;;5056824;28;20638;-75
2023/01/22 07:51:38;;;;;;;21.42;12.90;;;-1.40;99.90;;;;;;5057562;28;20228;-75
2023/01/22 07:54:05;;;;;;;20.35;12.02;;;-1.20;99.90;;;;;;5060142;28;20286;-75
2023/01/22 07:56:31;;;;;;;20.65;13.00;;;-1.00;99.90;;;;;;5051270;28;20286;-76
2023/01/22 07:58:59;;;;;;;19.60;11.27;;;-1.10;99.90;;;;;;5056780;28;20225;-76
2023/01/22 08:01:27;;;;;;;17.52;12.20;;;-1.10;99.90;;;;;;5058995;28;20202;-76
2023/01/22 08:03:57;;;;;;;19.13;12.15;;;-1.00;99.90;;;;;;5062070;28;20237;-76
2023/01/22 08:06:24;;;;;;;15.88;10.50;;;-1.00;99.90;;;;;;5053525;28;20288;-76
2023/01/22 08:08:50;;;;;;;16.10;10.07;;;-0.90;99.90;;;;;;5052787;28;20323;-76
2023/01/22 08:11:17;;;;;;;18.67;11.25;;;-0.90;99.90;;;;;;5059825;28;20719;-76
2023/01/22 08:13:45;;;;;;;16.10;10.18;;;-0.80;99.90;;;;;;5059420;28;20594;-76
2023/01/22 08:16:12;;;;;;;19.88;11.18;;;-0.70;99.90;;;;;;5058649;28;20233;-76
2023/01/22 08:18:43;;;;;;;18.77;10.95;;;-0.50;99.90;;;;;;5057510;28;20639;-76
2023/01/22 08:21:09;;;;;;;16.17;9.68;;;-0.40;99.90;;;;;;5050039;28;20241;-76
2023/01/22 08:23:41;;;;;;;18.30;9.80;;;-0.20;99.90;;;;;;5066206;28;20233;-76
2023/01/22 08:26:08;;;;;;;12.70;9.80;;;-0.20;99.90;;;;;;5056389;28;20580;-76
2023/01/22 08:28:38;;;;;;;16.93;10.83;;;0.00;99.90;;;;;;5049823;28;20929;-76
2023/01/22 08:31:06;;;;;;;13.67;9.50;;;0.00;99.90;;;;;;5049814;28;21049;-76
2023/01/22 08:33:34;;;;;;;15.20;11.30;;;0.10;99.90;;;;;;5055168;28;20496;-76
2023/01/22 08:36:02;;;;;;;16.10;9.80;;;0.20;99.90;;;;;;5049399;28;20461;-76
2023/01/22 08:38:29;;;;;;;13.30;8.90;;;0.30;99.90;;;;;;5052091;28;20500;-76
2023/01/22 08:40:56;;;;;;;16.70;9.83;;;0.30;99.90;;;;;;5052289;28;20932;-76
2023/01/22 08:43:23;;;;;;;16.83;10.60;;;0.20;99.90;;;;;;5051376;28;20541;-76
2023/01/22 08:45:50;;;;;;;13.23;8.97;;;0.20;99.90;;;;;;5053370;28;20540;-75
2023/01/22 08:48:17;;;;;;;12.10;8.67;;;0.10;99.90;;;;;;5051613;28;20457;-76
2023/01/22 08:50:44;;;;;;;12.10;7.60;;;0.20;99.90;;;;;;5060213;28;20512;-76
2023/01/22 08:53:12;;;;;;;14.20;9.70;;;0.30;99.90;;;;;;5062036;28;20480;-76
2023/01/22 08:55:39;;;;;;;16.40;10.43;;;0.30;99.90;;;;;;5064437;28;20950;-76
2023/01/22 08:58:09;;;;;;;10.60;7.97;;;0.30;99.90;;;;;;5054978;28;21075;-76
2023/01/22 09:00:36;;;;;;;13.77;9.83;;;0.40;99.90;;;;;;5054926;28;21152;-76
2023/01/22 09:03:03;;;;;;;14.17;8.03;;;0.20;99.90;;;;;;5054985;28;20460;-76
2023/01/22 09:05:30;;;;;;;21.40;14.10;;;0.30;99.90;;;;;;5055185;28;21193;-76
2023/01/22 09:08:01;;;;;;;24.37;14.60;;;0.30;99.90;;;;;;5058200;28;20545;-76
2023/01/22 09:10:29;;;;;;;17.67;13.63;;;0.40;99.90;;;;;;5050437;28;21037;-77
2023/01/22 09:12:59;;;;;;;16.70;11.80;;;0.40;99.90;;;;;;5050008;28;20488;-77
2023/01/22 09:15:30;;;;;;;16.13;10.17;;;0.40;99.90;;;;;;5073988;28;20450;-78
2023/01/22 09:17:58;;;;;;;10.53;8.27;;;0.50;99.90;;;;;;5067296;28;20568;-77
2023/01/22 09:20:25;;;;;;;16.23;8.57;;;0.40;99.90;;;;;;5052389;28;20471;-77
2023/01/22 09:22:53;;;;;;;13.73;9.57;;;0.50;99.90;;;;;;5059713;28;20492;-78
2023/01/22 09:25:20;;;;;;;14.73;8.90;;;0.60;99.90;;;;;;5061523;28;20519;-77
2023/01/22 09:27:49;;;;;;;11.87;7.80;;;0.70;99.90;;;;;;5053148;28;20476;-77
2023/01/22 09:30:19;;;;;;;12.10;9.33;;;0.90;99.90;;;;;;5055616;28;20989;-77
2023/01/22 09:32:48;;;;;;;13.23;7.80;;;0.90;99.90;;;;;;5060841;28;20494;-77
2023/01/22 09:35:15;;;;;;;10.47;7.23;;;0.90;99.90;;;;;;5067039;28;20464;-77
2023/01/22 09:37:42;;;;;;;10.30;8.17;;;1.20;99.90;;;;;;5075403;28;20524;-77
2023/01/22 09:40:20;;;;;;;12.27;9.53;;;1.30;99.90;;;;;;5055456;28;20985;-77
2023/01/22 09:42:50;;;;;;;9.93;7.80;;;1.40;99.90;;;;;;5058783;28;20466;-77
2023/01/22 09:45:19;;;;;;;11.73;9.73;;;1.10;99.90;;;;;;5054848;28;20484;-84
2023/01/22 09:47:49;;;;;;;13.10;8.20;;;1.30;99.90;;;;;;5064026;28;20484;-84
2023/01/22 09:50:19;;;;;;;14.03;9.00;;;1.20;99.90;;;;;;5064574;28;20488;-84
2023/01/22 09:52:55;;;;;;;7.90;6.57;;;1.20;99.90;;;;;;5054429;28;20556;-84
2023/01/22 09:55:28;;;;;;;11.33;8.20;;;1.20;99.90;;;;;;5063856;28;20948;-84
2023/01/22 09:58:00;;;;;;;10.67;6.80;;;1.10;99.90;;;;;;5057546;28;20941;-84
2023/01/22 10:00:35;;;;;;;11.73;8.50;;;1.10;99.90;;;;;;5061322;28;20471;-84
2023/01/22 10:03:09;;;;;;;11.00;7.40;;;1.20;99.90;;;;;;5062357;28;20517;-84
2023/01/22 10:05:39;;;;;;;11.47;7.87;;;1.10;99.90;;;;;;5057981;28;20463;-83
2023/01/22 10:08:13;;;;;;;13.00;8.77;;;1.20;99.90;;;;;;5062556;28;20550;-84
2023/01/22 10:10:42;;;;;;;10.73;8.03;;;1.20;99.90;;;;;;5059319;28;20512;-83
2023/01/22 10:13:17;;;;;;;13.17;8.20;;;1.20;99.90;;;;;;5061611;28;20513;-83
2023/01/22 10:15:47;;;;;;;9.03;7.37;;;1.30;99.90;;;;;;5054339;28;20538;-84
2023/01/22 10:18:33;;;;;;;9.90;7.60;;;1.30;99.90;;;;;;5060001;28;20471;-83
2023/01/22 10:21:05;;;;;;;9.27;7.03;;;1.30;99.90;;;;;;5058859;28;20561;-83
2023/01/22 10:23:33;;;;;;;7.83;6.70;;;1.30;99.90;;;;;;5056857;28;20461;-84
2023/01/22 10:26:10;;;;;;;10.13;7.33;;;1.30;99.90;;;;;;5052969;28;20515;-84
2023/01/22 10:28:44;;;;;;;11.73;7.93;;;1.20;99.90;;;;;;5049659;28;20538;-83
2023/01/22 10:31:22;;;;;;;11.80;8.30;;;1.20;99.90;;;;;;5048884;28;20488;-83
2023/01/22 10:33:56;;;;;;;8.70;7.47;;;1.00;99.90;;;;;;5059064;28;20541;-84
2023/01/22 10:36:25;;;;;;;12.63;8.00;;;1.00;99.90;;;;;;5057641;28;20467;-84
2023/01/22 10:39:03;;;;;;;10.30;7.20;;;1.10;99.90;;;;;;5059138;28;20476;-84
2023/01/22 10:41:31;;;;;;;12.60;9.00;;;1.40;99.90;;;;;;5062225;28;21133;-84
2023/01/22 10:44:21;;;;;;;13.00;6.87;;;1.30;99.90;;;;;;5057777;28;20460;-84
2023/01/22 10:46:52;;;;;;;9.17;7.33;;;1.30;99.90;;;;;;5064894;28;20456;-83
2023/01/22 10:49:25;;;;;;;10.40;6.80;;;1.10;99.90;;;;;;5076947;28;20475;-83
2023/01/22 10:51:58;;;;;;;11.20;7.67;;;1.20;99.90;;;;;;5058526;28;20459;-84
2023/01/22 10:54:30;;;;;;;10.53;7.77;;;1.20;99.90;;;;;;5054960;28;20955;-84
2023/01/22 10:57:06;;;;;;;11.87;7.60;;;1.30;99.90;;;;;;5062531;28;20514;-84
2023/01/22 10:59:34;;;;;;;9.23;7.27;;;1.40;99.90;;;;;;5063785;28;20467;-81
2023/01/22 11:02:12;;;;;;;12.13;8.43;;;1.30;99.90;;;;;;5063541;28;20444;-84
2023/01/22 11:04:39;;;;;;;11.77;8.30;;;1.40;99.90;;;;;;5056196;28;20555;-84
2023/01/22 11:07:11;;;;;;;10.97;8.30;;;1.20;99.90;;;;;;5060130;28;20463;-84
2023/01/22 11:09:43;;;;;;;8.50;6.20;;;1.30;99.90;;;;;;5059376;28;20661;-84
2023/01/22 11:12:17;;;;;;;12.10;8.03;;;1.40;99.90;;;;;;5058580;28;21010;-83
2023/01/22 11:14:47;;;;;;;10.80;8.07;;;1.50;99.90;;;;;;5060845;28;21155;-83
2023/01/22 11:17:23;;;;;;;11.23;8.27;;;1.40;99.90;;;;;;5056891;28;20464;-84
2023/01/22 11:19:58;;;;;;;7.27;5.93;;;1.50;99.90;;;;;;5053492;28;20519;-83
2023/01/22 11:22:33;;;;;;;11.57;9.60;;;1.20;99.90;;;;;;5056606;28;20979;-84
2023/01/22 11:25:00;;;;;;;14.10;8.00;;;1.20;99.90;;;;;;5055078;28;20523;-84
2023/01/22 11:27:48;;;;;;;14.77;8.10;;;1.10;99.90;;;;;;5057276;28;20525;-84
2023/01/22 11:30:57;;;;;;;12.73;8.80;;;1.20;99.90;;;;;;5051092;28;20484;-84
2023/01/22 11:33:40;;;;;;;12.60;8.40;;;1.20;99.90;;;;;;5044089;28;20453;-82
2023/01/22 11:36:19;;;;;;;12.13;8.73;;;1.10;99.90;;;;;;5060322;28;20886;-82
2023/01/22 11:38:50;;;;;;;14.33;8.07;;;1.00;99.90;;;;;;5072564;28;20531;-82
2023/01/22 11:41:54;;;;;;;13.10;8.20;;;0.80;99.90;;;;;;5059841;28;20464;-85
2023/01/22 11:44:54;;;;;;;10.70;7.93;;;0.80;99.90;;;;;;5029684;28;20463;-82
2023/01/22 11:47:41;;;;;;;13.97;9.50;;;0.90;99.90;;;;;;5053574;28;20523;-82
2023/01/22 11:50:23;;;;;;;11.20;8.30;;;1.00;99.90;;;;;;5062939;28;20490;-82
2023/01/22 11:52:54;;;;;;;11.30;7.37;;;1.10;99.90;;;;;;5068111;28;20448;-82
2023/01/22 11:55:40;;;;;;;15.97;8.00;;;1.10;99.90;;;;;;5059645;28;20475;-82
2023/01/22 11:58:15;;;;;;;14.30;8.57;;;1.10;99.90;;;;;;5060675;28;20506;-85
2023/01/22 12:00:53;;;;;;;14.87;9.37;;;1.30;99.90;;;;;;5054685;28;20460;-84
2023/01/22 12:03:52;;;;;;;13.57;8.97;;;1.30;99.90;;;;;;5061172;28;20454;-84
2023/01/22 12:06:36;;;;;;;12.60;8.87;;;1.20;99.90;;;;;;5062907;28;20521;-85
2023/01/22 12:09:12;;;;;;;13.87;10.17;;;1.20;99.90;;;;;;5053061;28;20821;-85
2023/01/22 12:12:01;;;;;;;12.57;9.17;;;1.20;99.90;;;;;;5076540;28;20818;-85
2023/01/22 12:14:51;;;;;;;13.90;8.37;;;1.20;99.90;;;;;;5059311;28;20470;-85
2023/01/22 12:17:31;;;;;;;14.77;9.73;;;1.20;99.90;;;;;;5056973;28;20488;-85
2023/01/22 12:20:23;;;;;;;14.30;10.40;;;1.40;99.90;;;;;;5063862;28;20545;-85
2023/01/22 12:22:55;;;;;;;13.13;7.90;;;1.20;99.90;;;;;;5057269;28;20478;-84
2023/01/22 12:25:37;;;;;;;15.23;10.40;;;1.30;99.90;;;;;;5058208;28;20856;-85
2023/01/22 12:28:14;;;;;;;15.27;8.47;;;1.40;99.90;;;;;;5063146;28;20444;-85
2023/01/22 12:30:52;;;;;;;10.27;8.90;;;1.50;99.90;;;;;;5062226;28;21067;-84
2023/01/22 12:33:22;;;;;;;11.40;8.67;;;1.40;99.90;;;;;;5057100;28;20444;-85
2023/01/22 12:35:52;;;;;;;12.07;10.03;;;1.60;99.90;;;;;;5061702;28;21025;-84
2023/01/22 12:38:36;;;;;;;17.07;9.37;;;1.40;99.90;;;;;;5061680;28;20492;-84
2023/01/22 12:41:31;;;;;;;13.80;8.47;;;1.50;99.90;;;;;;5063816;28;20544;-84
2023/01/22 12:44:03;;;;;;;10.37;8.13;;;1.50;99.90;;;;;;5061834;28;20867;-84
2023/01/22 12:46:38;;;;;;;11.07;8.40;;;1.50;99.90;;;;;;5059383;28;20471;-84
2023/01/22 12:49:07;;;;;;;12.97;8.83;;;1.50;99.90;;;;;;5062982;28;20963;-83
2023/01/22 12:51:49;;;;;;;11.63;7.20;;;1.20;99.90;;;;;;5062233;28;20496;-84
2023/01/22 12:54:21;;;;;;;12.90;9.03;;;1.20;99.90;;;;;;5056096;28;20479;-84
2023/01/22 12:56:49;;;;;;;15.20;9.90;;;1.30;99.90;;;;;;5060799;28;20818;-84
2023/01/22 12:59:42;;;;;;;11.83;10.60;;;1.50;99.90;;;;;;5054327;28;20509;-84